.
WxDataArchive / Data Records for 2015-10-10
2015-10-09 October 2015 2015-10-11

Data Records for Saturday, 10 October 2015

Time	Temp	Chill	HIndex	Humid	Dewpt	 Wind 	HiWind	WindDir	Rain 	Barom
-----	----	-----	------	-----	-----	------	------	-------	-----	-----
00:00	49.5	49.5	49.5	80	43.6	0	0	---	0.00	30.171 
00:05	49.2	49.2	49.2	81	43.6	0	0	---	0.00	30.171 
00:10	49.1	49.1	49.1	82	43.8	0	0	---	0.00	30.171 
00:15	48.9	48.9	48.9	83	44.0	0	0	---	0.00	30.171 
00:20	48.8	48.8	48.8	83	43.9	0	0	---	0.00	30.171 
00:25	48.6	48.6	48.6	84	44.0	0	0	---	0.00	30.171 
00:30	48.5	48.5	48.5	84	43.9	0	0	---	0.00	30.171 
00:35	48.2	48.2	48.2	84	43.6	0	0	---	0.00	30.171 
00:40	48.0	48.0	48.0	85	43.7	0	0	---	0.00	30.171 
00:45	47.9	47.9	47.9	85	43.6	0	0	---	0.00	30.174 
00:50	47.7	47.7	47.7	86	43.7	0	0	---	0.00	30.174 
00:55	47.7	47.7	47.7	86	43.7	0	0	---	0.00	30.174 
01:00	47.6	47.6	47.6	87	43.9	0	0	---	0.00	30.176 
01:05	47.6	47.6	47.6	87	43.9	0	0	---	0.00	30.176 
01:10	47.6	47.6	47.6	87	43.9	0	0	---	0.00	30.176 
01:15	47.6	47.6	47.6	87	43.9	0	0	---	0.00	30.173 
01:20	47.6	47.6	47.6	88	44.2	0	0	---	0.00	30.173 
01:25	47.6	47.6	47.6	88	44.2	0	0	---	0.00	30.173 
01:30	47.6	47.6	47.6	88	44.2	0	0	---	0.00	30.173 
01:35	47.6	47.6	47.6	88	44.2	0	0	---	0.00	30.173 
01:40	47.4	47.4	47.4	88	44.0	0	0	---	0.00	30.173 
01:45	47.4	47.4	47.4	87	43.7	0	0	---	0.00	30.180 
01:50	47.4	47.4	47.4	87	43.7	0	0	---	0.00	30.180 
01:55	47.3	47.3	47.3	87	43.6	0	0	---	0.00	30.180 
02:00	47.1	47.1	47.1	87	43.4	0	0	---	0.00	30.177 
02:05	47.0	47.0	47.0	87	43.3	0	0	---	0.00	30.177 
02:10	47.0	47.0	47.0	87	43.3	0	1	158	0.00	30.177 
02:15	46.8	46.8	46.8	87	43.1	0	0	---	0.00	30.177 
02:20	46.7	46.7	46.7	87	43.0	0	0	---	0.00	30.177 
02:25	46.5	46.5	46.5	87	42.8	0	0	---	0.00	30.177 
02:30	46.4	46.4	46.4	87	42.7	0	0	---	0.00	30.184 
02:35	46.4	46.4	46.4	87	42.7	0	0	---	0.00	30.184 
02:40	46.2	46.2	46.2	88	42.8	0	0	---	0.00	30.184 
02:45	46.2	46.2	46.2	88	42.8	0	0	---	0.00	30.184 
02:50	46.2	46.2	46.2	88	42.8	0	0	---	0.00	30.184 
02:55	46.2	46.2	46.2	88	42.8	0	1	158	0.00	30.184 
03:00	46.2	46.2	46.2	88	42.8	0	0	---	0.00	30.178 
03:05	46.2	46.2	46.2	87	42.5	0	1	158	0.00	30.178 
03:10	46.2	46.2	46.2	87	42.5	0	0	---	0.00	30.178 
03:15	46.2	46.2	46.2	87	42.5	0	0	---	0.00	30.180 
03:20	46.1	46.1	46.1	86	42.1	0	0	---	0.00	30.180 
03:25	46.0	46.0	46.0	86	42.0	0	0	---	0.00	30.180 
03:30	46.0	46.0	46.0	86	42.0	0	0	---	0.00	30.183 
03:35	46.0	46.0	46.0	86	42.0	0	0	---	0.00	30.183 
03:40	46.0	46.0	46.0	86	42.0	0	0	---	0.00	30.183 
03:45	45.8	45.8	45.8	86	41.9	0	0	---	0.00	30.182 
03:50	45.8	45.8	45.8	85	41.6	0	0	---	0.00	30.182 
03:55	45.7	45.7	45.7	85	41.5	0	1	158	0.00	30.182 
04:00	45.7	45.7	45.7	85	41.5	0	1	158	0.00	30.189 
04:05	45.7	45.7	45.7	85	41.5	0	0	---	0.00	30.189 
04:10	45.7	45.7	45.7	85	41.5	0	0	---	0.00	30.189 
04:15	45.7	45.7	45.7	85	41.5	0	1	158	0.00	30.184 
04:20	45.5	45.5	45.5	85	41.3	0	0	---	0.00	30.184 
04:25	45.5	45.5	45.5	85	41.3	0	0	---	0.00	30.184 
04:30	45.4	45.4	45.4	85	41.2	0	0	---	0.00	30.186 
04:35	45.4	45.4	45.4	85	41.2	0	0	---	0.00	30.186 
04:40	45.2	45.2	45.2	86	41.3	0	0	---	0.00	30.186 
04:45	45.2	45.2	45.2	86	41.3	0	0	---	0.00	30.188 
04:50	45.2	45.2	45.2	86	41.3	0	0	---	0.00	30.188 
04:55	45.1	45.1	45.1	86	41.2	0	0	---	0.00	30.188 
05:00	45.1	45.1	45.1	86	41.2	0	0	---	0.00	30.176 
05:05	44.9	44.9	44.9	86	41.0	0	0	---	0.00	30.176 
05:10	44.8	44.8	44.8	86	40.9	0	0	---	0.00	30.176 
05:15	44.6	44.6	44.6	86	40.7	0	0	---	0.00	30.176 
05:20	44.5	44.5	44.5	87	40.9	0	0	---	0.00	30.176 
05:25	44.3	44.3	44.3	87	40.7	0	0	---	0.00	30.176 
05:30	44.2	44.2	44.2	87	40.6	0	0	---	0.00	30.173 
05:35	44.1	44.1	44.1	87	40.5	0	0	---	0.00	30.173 
05:40	43.9	43.9	43.9	88	40.6	0	0	---	0.00	30.173 
05:45	43.9	43.9	43.9	88	40.6	0	0	---	0.00	30.180 
05:50	44.1	44.1	44.1	88	40.8	0	0	---	0.00	30.180 
05:55	44.1	44.1	44.1	89	41.1	0	0	---	0.00	30.180 
06:00	44.1	44.1	44.1	89	41.1	0	0	---	0.00	30.177 
06:05	43.9	43.9	43.9	89	40.9	0	0	---	0.00	30.177 
06:10	43.9	43.9	43.9	89	40.9	0	0	---	0.00	30.177 
06:15	43.9	43.9	43.9	89	40.9	0	0	---	0.00	30.179 
06:20	43.8	43.8	43.8	89	40.8	0	0	---	0.00	30.179 
06:25	43.8	43.8	43.8	89	40.8	0	0	---	0.00	30.179 
06:30	43.6	43.6	43.6	89	40.6	0	0	---	0.00	30.182 
06:35	43.5	43.5	43.5	90	40.8	0	0	---	0.00	30.182 
06:40	43.5	43.5	43.5	90	40.8	0	0	---	0.00	30.182 
06:45	43.3	43.3	43.3	90	40.6	0	0	---	0.00	30.177 
06:50	43.3	43.3	43.3	90	40.6	0	0	---	0.00	30.177 
06:55	43.3	43.3	43.3	90	40.6	0	0	---	0.00	30.177 
07:00	43.2	43.2	43.2	90	40.5	0	0	---	0.00	30.188 
07:05	43.1	43.1	43.1	90	40.4	0	0	---	0.00	30.188 
07:10	43.1	43.1	43.1	90	40.4	0	0	---	0.00	30.188 
07:15	42.9	42.9	42.9	90	40.2	0	0	---	0.00	30.191 
07:20	42.8	42.8	42.8	90	40.1	0	0	---	0.00	30.191 
07:25	42.6	42.6	42.6	91	40.2	0	0	---	0.00	30.191 
07:30	42.5	42.5	42.5	91	40.1	0	0	---	0.00	30.195 
07:35	42.3	42.3	42.3	91	39.9	0	0	---	0.00	30.195 
07:40	42.2	42.2	42.2	91	39.8	0	0	---	0.00	30.195 
07:45	42.1	42.1	42.1	91	39.7	0	0	---	0.00	30.196 
07:50	41.9	41.9	41.9	91	39.5	0	0	---	0.00	30.196 
07:55	41.8	41.8	41.8	91	39.4	0	0	---	0.00	30.196 
08:00	41.8	41.8	41.8	91	39.4	0	0	---	0.00	30.195 
08:05	41.6	41.6	41.6	91	39.2	0	0	---	0.00	30.195 
08:10	41.5	41.5	41.5	91	39.1	0	0	---	0.00	30.195 
08:15	41.5	41.5	41.5	91	39.1	0	0	---	0.00	30.200 
08:20	41.3	41.3	41.3	91	38.9	0	0	---	0.00	30.200 
08:25	41.3	41.3	41.3	91	38.9	0	0	---	0.00	30.200 
08:30	41.2	41.2	41.2	92	39.1	0	0	---	0.00	30.202 
08:35	41.3	41.3	41.3	92	39.2	0	0	---	0.00	30.202 
08:40	41.5	41.5	41.5	92	39.4	0	0	---	0.00	30.202 
08:45	41.8	41.8	41.8	92	39.6	0	0	---	0.00	30.203 
08:50	42.2	42.2	42.2	93	40.3	0	0	---	0.00	30.203 
08:55	42.8	42.8	42.8	93	40.9	0	0	---	0.00	30.203 
09:00	43.2	43.2	43.2	93	41.3	0	0	---	0.00	30.208 
09:05	43.6	43.6	43.6	93	41.7	0	0	---	0.00	30.208 
09:10	44.1	44.1	44.1	93	42.2	0	0	---	0.00	30.208 
09:15	44.3	44.3	44.3	93	42.4	0	0	---	0.00	30.208 
09:20	44.9	44.9	44.9	94	43.3	0	0	---	0.00	30.208 
09:25	45.4	45.4	45.4	93	43.5	0	0	---	0.00	30.208 
09:30	46.0	46.0	46.0	93	44.1	0	0	---	0.00	30.209 
09:35	46.4	46.4	46.4	94	44.8	0	0	---	0.00	30.209 
09:40	47.0	47.0	47.0	94	45.4	0	1	158	0.00	30.209 
09:45	47.6	47.6	47.6	93	45.7	0	1	158	0.00	30.211 
09:50	48.3	48.3	48.3	92	46.1	0	1	158	0.00	30.211 
09:55	49.1	49.1	49.1	92	46.9	0	0	---	0.00	30.211 
10:00	49.8	49.8	49.8	91	47.3	0	1	158	0.00	30.208 
10:05	50.7	50.7	50.7	88	47.3	0	1	158	0.00	30.208 
10:10	51.9	51.9	51.9	86	47.8	0	1	158	0.00	30.208 
10:15	53.2	53.2	53.2	82	47.8	0	2	158	0.00	30.206 
10:20	54.4	54.4	54.4	79	48.0	0	0	---	0.00	30.206 
10:25	55.3	55.3	55.3	77	48.2	0	1	158	0.00	30.206 
10:30	56.3	56.3	56.3	72	47.4	0	1	158	0.00	30.204 
10:35	57.3	57.3	57.3	69	47.2	0	3	158	0.00	30.204 
10:40	58.1	58.1	58.1	65	46.4	0	2	158	0.00	30.204 
10:45	58.4	58.4	58.4	64	46.3	0	1	158	0.00	30.203 
10:50	58.7	58.7	58.7	63	46.1	0	2	158	0.00	30.203 
10:55	59.3	59.3	59.3	56	43.6	0	1	158	0.00	30.203 
11:00	60.1	60.1	60.1	55	43.9	0	1	158	0.00	30.200 
11:05	61.0	61.0	61.0	55	44.7	0	1	158	0.00	30.200 
11:10	61.5	61.5	61.5	52	43.7	0	2	158	0.00	30.200 
11:15	61.8	61.8	61.8	53	44.5	0	1	158	0.00	30.190 
11:20	62.0	62.0	62.0	50	43.1	0	2	135	0.00	30.190 
11:25	62.0	62.0	62.0	50	43.1	0	3	135	0.00	30.190 
11:30	62.1	62.1	62.1	50	43.2	0	1	112	0.00	30.189 
11:35	62.3	62.3	62.3	49	42.9	0	3	112	0.00	30.189 
11:40	62.1	62.1	62.1	47	41.6	0	1	135	0.00	30.189 
11:45	62.1	62.1	62.1	48	42.2	0	3	135	0.00	30.185 
11:50	62.1	62.1	62.1	50	43.2	0	2	135	0.00	30.185 
11:55	62.0	62.0	62.0	51	43.7	1	5	90	0.00	30.185 
12:00	62.0	62.0	62.0	49	42.6	0	1	90	0.00	30.183 
12:05	62.0	62.0	62.0	48	42.1	1	3	90	0.00	30.183 
12:10	62.0	62.0	62.0	50	43.1	0	2	90	0.00	30.183 
12:15	62.1	62.1	62.1	52	44.3	0	2	90	0.00	30.177 
12:20	62.1	62.1	62.1	49	42.7	0	1	90	0.00	30.177 
12:25	62.4	62.4	62.4	49	43.0	0	3	90	0.00	30.177 
12:30	62.4	62.4	62.4	48	42.4	0	2	90	0.00	30.171 
12:35	61.6	61.6	61.6	49	42.3	1	3	315	0.00	30.171 
12:40	61.2	61.2	61.2	50	42.4	0	2	315	0.00	30.171 
12:45	61.3	61.3	61.3	51	43.0	0	3	45	0.00	30.171 
12:50	61.8	61.8	61.8	51	43.5	1	2	45	0.00	30.171 
12:55	62.1	62.1	62.1	50	43.2	0	2	45	0.00	30.171 
13:00	62.6	62.6	62.6	50	43.7	0	3	270	0.00	30.164 
13:05	62.7	62.7	62.7	48	42.7	0	2	270	0.00	30.164 
13:10	62.9	62.9	62.9	47	42.4	0	2	270	0.00	30.164 
13:15	62.7	62.7	62.7	46	41.6	1	4	315	0.00	30.153 
13:20	62.1	62.1	62.1	48	42.2	1	3	315	0.00	30.153 
13:25	62.1	62.1	62.1	48	42.2	0	2	315	0.00	30.153 
13:30	61.8	61.8	61.8	49	42.4	1	3	315	0.00	30.155 
13:35	62.0	62.0	62.0	49	42.6	0	2	315	0.00	30.155 
13:40	62.4	62.4	62.4	49	43.0	0	2	112	0.00	30.155 
13:45	63.1	63.1	63.1	47	42.5	0	3	112	0.00	30.139 
13:50	63.1	63.1	63.1	46	42.0	1	3	112	0.00	30.139 
13:55	62.9	62.9	62.9	48	42.9	0	1	45	0.00	30.139 
14:00	63.1	63.1	63.1	49	43.6	0	1	45	0.00	30.125 
14:05	63.2	63.2	63.2	47	42.6	1	3	22	0.00	30.125 
14:10	63.1	63.1	63.1	46	42.0	1	3	315	0.00	30.125 
14:15	62.7	62.7	62.7	47	42.2	0	3	315	0.00	30.126 
14:20	62.6	62.6	62.6	47	42.1	0	2	315	0.00	30.126 
14:25	62.6	62.6	62.6	47	42.1	0	2	315	0.00	30.126 
14:30	63.1	63.1	63.1	49	43.6	0	3	90	0.00	30.118 
14:35	63.5	63.5	63.5	47	42.9	0	1	90	0.00	30.118 
14:40	63.9	63.9	63.9	45	42.1	0	2	90	0.00	30.118 
14:45	64.0	64.0	64.0	46	42.8	0	2	90	0.00	30.107 
14:50	64.2	64.2	64.2	45	42.4	0	3	315	0.00	30.107 
14:55	64.2	64.2	64.2	44	41.8	0	1	315	0.00	30.107 
15:00	64.2	64.2	64.2	44	41.8	0	1	315	0.00	30.094 
15:05	64.0	64.0	64.0	44	41.6	0	3	338	0.00	30.094 
15:10	64.0	64.0	64.0	47	43.4	0	2	338	0.00	30.094 
15:15	63.9	63.9	63.9	44	41.6	1	3	338	0.00	30.088 
15:20	63.7	63.7	63.7	45	42.0	0	3	292	0.00	30.088 
15:25	63.7	63.7	63.7	46	42.5	0	1	292	0.00	30.088 
15:30	63.7	63.7	63.7	45	42.0	1	4	270	0.00	30.077 
15:35	63.4	63.4	63.4	45	41.7	1	2	270	0.00	30.077 
15:40	63.2	63.2	63.2	46	42.1	0	2	270	0.00	30.077 
15:45	63.5	63.5	63.5	47	42.9	0	1	270	0.00	30.075 
15:50	63.9	63.9	63.9	46	42.7	0	2	270	0.00	30.075 
15:55	64.0	64.0	64.0	47	43.4	0	1	270	0.00	30.075 
16:00	64.2	64.2	64.2	46	43.0	0	1	270	0.00	30.063 
16:05	64.0	64.0	64.0	45	42.2	0	1	270	0.00	30.063 
16:10	64.0	64.0	64.0	46	42.8	0	1	270	0.00	30.063 
16:15	64.0	64.0	64.0	45	42.2	0	1	270	0.00	30.064 
16:20	64.0	64.0	64.0	46	42.8	0	2	270	0.00	30.064 
16:25	64.3	64.3	64.3	45	42.5	0	3	270	0.00	30.064 
16:30	64.3	64.3	64.3	45	42.5	0	1	270	0.00	30.062 
16:35	64.3	64.3	64.3	45	42.5	0	1	270	0.00	30.062 
16:40	64.3	64.3	64.3	45	42.5	0	2	270	0.00	30.062 
16:45	64.2	64.2	64.2	45	42.4	0	1	270	0.00	30.060 
16:50	64.2	64.2	64.2	46	43.0	0	2	270	0.00	30.060 
16:55	64.2	64.2	64.2	46	43.0	0	1	270	0.00	30.060 
17:00	64.2	64.2	64.2	46	43.0	0	1	270	0.00	30.053 
17:05	64.2	64.2	64.2	46	43.0	0	1	270	0.00	30.053 
17:10	64.2	64.2	64.2	45	42.4	0	1	270	0.00	30.053 
17:15	64.2	64.2	64.2	45	42.4	0	2	270	0.00	30.048 
17:20	64.2	64.2	64.2	45	42.4	0	1	270	0.00	30.048 
17:25	64.2	64.2	64.2	44	41.8	0	1	270	0.00	30.048 
17:30	64.2	64.2	64.2	45	42.4	0	1	270	0.00	30.046 
17:35	64.2	64.2	64.2	43	41.2	0	1	270	0.00	30.046 
17:40	64.2	64.2	64.2	44	41.8	0	1	270	0.00	30.046 
17:45	64.0	64.0	64.0	44	41.6	0	3	270	0.00	30.041 
17:50	64.0	64.0	64.0	45	42.2	0	1	270	0.00	30.041 
17:55	63.9	63.9	63.9	45	42.1	0	0	---	0.00	30.041 
18:00	63.7	63.7	63.7	46	42.5	0	1	270	0.00	30.036 
18:05	63.4	63.4	63.4	47	42.8	0	0	---	0.00	30.036 
18:10	63.2	63.2	63.2	47	42.6	0	0	---	0.00	30.036 
18:15	63.1	63.1	63.1	48	43.1	0	0	---	0.00	30.039 
18:20	62.7	62.7	62.7	49	43.3	0	0	---	0.00	30.039 
18:25	62.6	62.6	62.6	48	42.6	0	0	---	0.00	30.039 
18:30	62.4	62.4	62.4	49	43.0	0	0	---	0.00	30.041 
18:35	62.3	62.3	62.3	50	43.4	0	0	---	0.00	30.041 
18:40	62.0	62.0	62.0	50	43.1	0	0	---	0.00	30.041 
18:45	61.6	61.6	61.6	50	42.8	0	0	---	0.00	30.035 
18:50	61.3	61.3	61.3	51	43.0	0	0	---	0.00	30.035 
18:55	61.0	61.0	61.0	53	43.7	0	0	---	0.00	30.035 
19:00	60.7	60.7	60.7	54	44.0	0	0	---	0.00	30.035 
19:05	60.2	60.2	60.2	54	43.5	0	0	---	0.00	30.035 
19:10	59.9	59.9	59.9	55	43.7	0	0	---	0.00	30.035 
19:15	59.5	59.5	59.5	56	43.8	0	0	---	0.00	30.034 
19:20	59.2	59.2	59.2	58	44.4	0	0	---	0.00	30.034 
19:25	58.7	58.7	58.7	59	44.4	0	0	---	0.00	30.034 
19:30	58.3	58.3	58.3	60	44.5	0	0	---	0.00	30.034 
19:35	57.8	57.8	57.8	61	44.4	0	0	---	0.00	30.034 
19:40	57.3	57.3	57.3	61	44.0	0	0	---	0.00	30.034 
19:45	56.9	56.9	56.9	62	44.0	0	0	---	0.00	30.031 
19:50	56.5	56.5	56.5	63	44.1	0	0	---	0.00	30.031 
19:55	56.0	56.0	56.0	65	44.4	0	0	---	0.00	30.031 
20:00	55.7	55.7	55.7	65	44.1	0	0	---	0.00	30.027 
20:05	55.4	55.4	55.4	66	44.2	0	0	---	0.00	30.027 
20:10	55.1	55.1	55.1	68	44.7	0	0	---	0.00	30.027 
20:15	54.8	54.8	54.8	69	44.8	0	0	---	0.00	30.027 
20:20	54.5	54.5	54.5	70	44.9	0	0	---	0.00	30.027 
20:25	54.1	54.1	54.1	71	44.9	0	0	---	0.00	30.027 
20:30	53.6	53.6	53.6	72	44.8	0	0	---	0.00	30.025 
20:35	53.3	53.3	53.3	73	44.9	0	0	---	0.00	30.025 
20:40	53.1	53.1	53.1	73	44.7	0	0	---	0.00	30.025 
20:45	52.6	52.6	52.6	74	44.6	0	0	---	0.00	30.023 
20:50	52.3	52.3	52.3	75	44.6	0	0	---	0.00	30.023 
20:55	52.0	52.0	52.0	75	44.3	0	0	---	0.00	30.023 
21:00	51.7	51.7	51.7	76	44.4	0	0	---	0.00	30.017 
21:05	51.6	51.6	51.6	77	44.6	0	0	---	0.00	30.017 
21:10	51.4	51.4	51.4	77	44.4	0	0	---	0.00	30.017 
21:15	51.3	51.3	51.3	78	44.7	0	0	---	0.00	30.010 
21:20	51.1	51.1	51.1	78	44.5	0	0	---	0.00	30.010 
21:25	51.1	51.1	51.1	79	44.8	0	0	---	0.00	30.010 
21:30	51.1	51.1	51.1	79	44.8	0	0	---	0.00	30.012 
21:35	51.0	51.0	51.0	79	44.7	0	0	---	0.00	30.012 
21:40	51.0	51.0	51.0	79	44.7	0	0	---	0.00	30.012 
21:45	50.8	50.8	50.8	80	44.9	0	0	---	0.00	30.010 
21:50	50.8	50.8	50.8	80	44.9	0	0	---	0.00	30.010 
21:55	50.7	50.7	50.7	80	44.8	0	0	---	0.00	30.010 
22:00	50.4	50.4	50.4	80	44.5	0	0	---	0.00	30.014 
22:05	50.1	50.1	50.1	81	44.5	0	0	---	0.00	30.014 
22:10	49.9	49.9	49.9	81	44.3	0	0	---	0.00	30.014 
22:15	49.8	49.8	49.8	81	44.2	0	0	---	0.00	30.005 
22:20	49.6	49.6	49.6	82	44.3	0	0	---	0.00	30.005 
22:25	49.6	49.6	49.6	82	44.3	0	0	---	0.00	30.005 
22:30	49.6	49.6	49.6	82	44.3	0	0	---	0.00	30.004 
22:35	49.8	49.8	49.8	82	44.5	0	0	---	0.00	30.004 
22:40	49.9	49.9	49.9	81	44.3	0	0	---	0.00	30.004 
22:45	50.1	50.1	50.1	81	44.5	0	0	---	0.00	29.996 
22:50	50.1	50.1	50.1	81	44.5	0	0	---	0.00	29.996 
22:55	50.1	50.1	50.1	81	44.5	0	0	---	0.00	29.996 
23:00	49.9	49.9	49.9	81	44.3	0	0	---	0.00	29.997 
23:05	49.8	49.8	49.8	81	44.2	0	0	---	0.00	29.997 
23:10	49.8	49.8	49.8	81	44.2	0	0	---	0.00	29.997 
23:15	49.8	49.8	49.8	80	43.9	0	0	---	0.00	29.994 
23:20	49.8	49.8	49.8	80	43.9	0	0	---	0.00	29.994 
23:25	49.6	49.6	49.6	80	43.7	0	0	---	0.00	29.994 
23:30	49.6	49.6	49.6	80	43.7	0	0	---	0.00	29.994 
23:35	49.6	49.6	49.6	80	43.7	0	0	---	0.00	29.994 
23:40	49.6	49.6	49.6	80	43.7	0	0	---	0.00	29.994 
23:45	49.6	49.6	49.6	80	43.7	0	0	---	0.00	29.991 
23:50	49.6	49.6	49.6	79	43.4	0	0	---	0.00	29.991 
23:55	49.6	49.6	49.6	79	43.4	0	0	---	0.00	29.991 

CoCoRaHS
IN-AL-39
A2 Web Hosting
Creative Commons License
GoDaddy
search engine by freefind advanced

loaded 2018-11-16 11:41:13 • last modified 2010-11-18 10:43:29
Privacy PolicyDisclaimer
• wx.awcolley.com is powered by PmWiki v.2002016 •
• all content (unless otherwise noted) © 2018 A W Colley